Time;durP1;ratioP1;P1;durP2;ratioP2;P2;SDS_P1;SDS_P2;PMS_P1;PMS_P2;Temp;Humidity;BMP_temperature;BMP_pressure;BME280_temperature;BME280_humidity;BME280_pressure;Samples;Min_cycle;Max_cycle;Signal;HPM_P1;HPM_P2
2023/10/25 00:01:40;;;;;;;0.80;0.50;;;10.30;99.90;;;;;;5075855;28;20210;-87
2023/10/25 00:04:07;;;;;;;1.10;0.50;;;10.30;99.90;;;;;;5073642;28;20075;-87
2023/10/25 00:06:34;;;;;;;0.65;0.47;;;10.30;99.90;;;;;;5067612;28;20047;-87
2023/10/25 00:09:04;;;;;;;1.98;0.77;;;10.30;99.90;;;;;;5072728;28;20048;-88
2023/10/25 00:11:32;;;;;;;0.98;0.47;;;10.30;99.90;;;;;;5075173;28;20131;-87
2023/10/25 00:13:59;;;;;;;0.52;0.40;;;10.30;99.90;;;;;;5072699;28;20048;-87
2023/10/25 00:16:26;;;;;;;0.47;0.45;;;10.40;99.90;;;;;;5067867;28;20048;-87
2023/10/25 00:18:53;;;;;;;0.77;0.52;;;10.40;99.90;;;;;;5088311;28;20412;-87
2023/10/25 00:21:21;;;;;;;0.57;0.50;;;10.50;99.90;;;;;;5070318;28;20052;-87
2023/10/25 00:23:47;;;;;;;0.57;0.40;;;10.40;83.00;;;;;;5081778;28;20897;-87
2023/10/25 00:26:20;;;;;;;1.23;0.82;;;10.40;21.90;;;;;;5098518;28;20463;-87
2023/10/25 00:28:48;;;;;;;0.98;0.60;;;10.40;21.30;;;;;;5070559;28;20051;-86
2023/10/25 00:31:15;;;;;;;0.55;0.43;;;10.40;54.10;;;;;;5071579;28;20048;-87
2023/10/25 00:33:42;;;;;;;0.75;0.68;;;10.40;35.50;;;;;;5058316;28;20096;-86
2023/10/25 00:36:10;;;;;;;1.80;0.70;;;10.40;50.00;;;;;;5083590;28;20098;-87
2023/10/25 00:38:37;;;;;;;0.60;0.52;;;10.40;20.50;;;;;;5077024;28;20127;-87
2023/10/25 00:41:04;;;;;;;0.40;0.40;;;10.40;11.60;;;;;;5070925;28;20044;-86
2023/10/25 00:43:31;;;;;;;0.47;0.45;;;10.40;15.30;;;;;;5072410;28;20136;-87
2023/10/25 00:46:02;;;;;;;0.40;0.40;;;10.50;37.20;;;;;;5070860;28;20077;-87
2023/10/25 00:48:29;;;;;;;0.73;0.52;;;10.40;20.70;;;;;;5084418;28;20032;-87
2023/10/25 00:50:57;;;;;;;0.68;0.50;;;10.50;14.40;;;;;;5087670;28;20052;-88
2023/10/25 00:53:24;;;;;;;0.90;0.60;;;10.50;1.00;;;;;;5067627;28;20054;-87
2023/10/25 00:55:53;;;;;;;0.40;0.40;;;10.50;1.00;;;;;;5073783;28;20043;-88
2023/10/25 00:58:21;;;;;;;0.40;0.40;;;10.50;1.00;;;;;;5061175;28;20055;-87
2023/10/25 01:00:49;;;;;;;0.40;0.40;;;10.50;1.00;;;;;;5084775;28;20050;-87
2023/10/25 01:03:16;;;;;;;0.20;0.20;;;10.50;1.00;;;;;;5057383;28;20174;-86
2023/10/25 01:05:44;;;;;;;0.52;0.40;;;10.50;1.00;;;;;;5086022;28;20081;-87
2023/10/25 01:08:18;;;;;;;0.80;0.50;;;10.50;1.00;;;;;;5072990;28;20056;-87
2023/10/25 01:10:49;;;;;;;0.50;0.50;;;10.60;1.00;;;;;;5065347;28;20059;-88
2023/10/25 01:13:17;;;;;;;0.60;0.40;;;10.60;1.00;;;;;;5073662;28;20517;-87
2023/10/25 01:15:45;;;;;;;0.73;0.45;;;10.60;1.00;;;;;;5069581;28;20444;-88
2023/10/25 01:18:13;;;;;;;0.77;0.40;;;10.50;1.00;;;;;;5055594;28;20044;-86
2023/10/25 01:20:41;;;;;;;0.73;0.50;;;10.60;1.00;;;;;;5067989;28;20059;-86
2023/10/25 01:23:08;;;;;;;0.50;0.50;;;10.60;1.00;;;;;;5075267;28;20317;-87
2023/10/25 01:25:35;;;;;;;0.55;0.43;;;10.60;1.00;;;;;;5069905;28;20059;-87
2023/10/25 01:28:02;;;;;;;0.82;0.60;;;10.60;1.00;;;;;;5075348;28;20557;-87
2023/10/25 01:30:30;;;;;;;1.00;0.45;;;10.60;1.00;;;;;;5072644;28;20187;-87
2023/10/25 01:32:58;;;;;;;0.32;0.32;;;10.60;1.00;;;;;;5060993;28;20802;-87
2023/10/25 01:35:25;;;;;;;0.38;0.38;;;10.60;1.00;;;;;;5071138;28;20067;-87
2023/10/25 01:37:53;;;;;;;0.63;0.45;;;10.60;1.00;;;;;;5085854;28;20826;-86
2023/10/25 01:40:20;;;;;;;0.30;0.30;;;10.60;1.00;;;;;;5075807;28;20052;-87
2023/10/25 01:42:47;;;;;;;0.52;0.43;;;10.60;1.00;;;;;;5072971;28;20058;-86
2023/10/25 01:45:14;;;;;;;0.40;0.40;;;10.50;1.00;;;;;;5059531;28;20234;-85
2023/10/25 01:47:41;;;;;;;0.80;0.45;;;10.50;1.00;;;;;;5072421;28;20039;-85
2023/10/25 01:50:08;;;;;;;0.35;0.35;;;10.50;1.00;;;;;;5071176;28;20044;-86
2023/10/25 01:52:35;;;;;;;0.45;0.32;;;10.60;1.00;;;;;;5068384;28;20044;-85
2023/10/25 01:55:02;;;;;;;0.43;0.40;;;10.60;1.00;;;;;;5068348;28;20155;-86
2023/10/25 01:57:30;;;;;;;0.60;0.40;;;10.60;1.00;;;;;;5073322;28;20465;-89
2023/10/25 01:59:57;;;;;;;0.52;0.43;;;10.60;1.00;;;;;;5059836;28;20060;-87
2023/10/25 02:02:24;;;;;;;0.47;0.40;;;10.60;22.20;;;;;;5069829;28;20052;-86
2023/10/25 02:04:51;;;;;;;1.25;0.70;;;10.60;14.50;;;;;;5071544;28;20044;-88
2023/10/25 02:07:18;;;;;;;1.13;0.70;;;10.60;25.30;;;;;;5071841;28;20063;-86
2023/10/25 02:09:46;;;;;;;0.75;0.50;;;10.60;40.10;;;;;;5063409;28;20413;-87
2023/10/25 02:12:13;;;;;;;1.33;0.70;;;10.60;61.60;;;;;;5072174;28;20192;-87
2023/10/25 02:14:41;;;;;;;0.70;0.60;;;10.60;76.50;;;;;;5073240;28;20052;-88
2023/10/25 02:17:08;;;;;;;0.38;0.28;;;10.60;32.50;;;;;;5072145;28;20236;-86
2023/10/25 02:19:36;;;;;;;1.02;0.50;;;10.60;25.20;;;;;;5065271;28;20040;-86
2023/10/25 02:22:03;;;;;;;1.48;0.50;;;10.60;49.40;;;;;;5056520;28;20499;-87
2023/10/25 02:24:30;;;;;;;1.08;0.50;;;10.60;44.00;;;;;;5064228;28;20048;-86
2023/10/25 02:26:57;;;;;;;0.90;0.60;;;10.60;90.70;;;;;;5053929;28;20052;-86
2023/10/25 02:29:24;;;;;;;0.98;0.60;;;10.60;99.90;;;;;;5070087;28;20086;-87
2023/10/25 02:31:51;;;;;;;0.60;0.60;;;10.60;99.90;;;;;;5081659;28;20062;-86
2023/10/25 02:34:18;;;;;;;0.50;0.47;;;10.60;99.90;;;;;;5083959;28;20048;-87
2023/10/25 02:36:45;;;;;;;0.73;0.60;;;10.70;99.90;;;;;;5085614;28;20097;-87
2023/10/25 02:39:13;;;;;;;0.52;0.40;;;10.70;99.90;;;;;;5081024;28;20294;-86
2023/10/25 02:41:41;;;;;;;0.60;0.50;;;10.70;99.90;;;;;;5072841;28;20055;-87
2023/10/25 02:44:15;;;;;;;0.30;0.30;;;10.70;99.90;;;;;;5088331;28;20036;-86
2023/10/25 02:46:42;;;;;;;1.10;0.45;;;10.70;99.90;;;;;;5094755;28;20528;-87
2023/10/25 02:49:12;;;;;;;1.58;0.70;;;10.70;99.90;;;;;;5073681;28;20054;-86
2023/10/25 02:51:39;;;;;;;0.50;0.40;;;10.70;99.90;;;;;;5070491;28;20043;-86
2023/10/25 02:54:06;;;;;;;0.80;0.50;;;10.70;99.90;;;;;;5073422;28;20075;-86
2023/10/25 02:56:33;;;;;;;1.23;0.60;;;10.70;99.90;;;;;;5061572;28;20047;-86
2023/10/25 02:59:00;;;;;;;0.90;0.63;;;10.70;99.90;;;;;;5080906;28;20056;-86
2023/10/25 03:01:27;;;;;;;0.70;0.50;;;10.70;99.90;;;;;;5071620;28;20052;-87
2023/10/25 03:03:58;;;;;;;0.57;0.57;;;10.80;99.90;;;;;;5089373;28;20083;-87
2023/10/25 03:06:27;;;;;;;;;;;10.70;99.90;;;;;;5083157;28;20525;-87
2023/10/25 03:08:55;;;;;;;0.65;0.50;;;10.70;99.90;;;;;;5076727;28;19928;-87
2023/10/25 03:11:22;;;;;;;0.73;0.38;;;10.70;99.90;;;;;;5078864;28;20492;-87
2023/10/25 03:13:49;;;;;;;0.47;0.30;;;10.70;99.90;;;;;;5082772;28;20067;-86
2023/10/25 03:16:16;;;;;;;0.52;0.35;;;10.70;99.90;;;;;;5074374;28;20051;-86
2023/10/25 03:18:43;;;;;;;0.30;0.25;;;10.70;99.90;;;;;;5080882;28;20417;-87
2023/10/25 03:21:10;;;;;;;0.40;0.40;;;10.70;99.90;;;;;;5082275;28;20052;-88
2023/10/25 03:23:37;;;;;;;0.40;0.40;;;10.70;99.90;;;;;;5088364;28;20066;-87
2023/10/25 03:26:05;;;;;;;1.58;0.40;;;10.80;99.90;;;;;;5073083;28;20529;-86
2023/10/25 03:28:32;;;;;;;0.38;0.38;;;10.70;99.90;;;;;;5057972;28;20052;-87
2023/10/25 03:31:05;;;;;;;1.38;0.43;;;10.80;99.90;;;;;;5090960;28;20485;-87
2023/10/25 03:33:33;;;;;;;0.50;0.30;;;10.80;99.90;;;;;;5088826;28;20080;-87
2023/10/25 03:36:00;;;;;;;0.30;0.30;;;10.80;99.90;;;;;;5074448;28;20587;-87
2023/10/25 03:38:27;;;;;;;0.45;0.40;;;10.80;99.90;;;;;;5058264;28;20052;-87
2023/10/25 03:41:07;;;;;;;0.50;0.40;;;10.80;99.90;;;;;;5057037;28;20056;-86
2023/10/25 03:43:35;;;;;;;0.40;0.40;;;10.80;99.90;;;;;;5080055;28;20052;-86
2023/10/25 03:46:06;;;;;;;0.70;0.30;;;10.80;99.90;;;;;;5085640;28;20052;-86
2023/10/25 03:48:36;;;;;;;0.43;0.30;;;10.80;99.90;;;;;;5074770;28;20051;-88
2023/10/25 03:51:04;;;;;;;0.63;0.30;;;10.80;99.90;;;;;;5081502;28;20055;-86
2023/10/25 03:53:35;;;;;;;0.40;0.30;;;10.80;99.90;;;;;;5069058;28;20312;-86
2023/10/25 03:56:02;;;;;;;0.47;0.20;;;10.80;99.90;;;;;;5056538;28;20074;-86
2023/10/25 03:58:31;;;;;;;0.20;0.20;;;10.90;99.90;;;;;;5076291;28;20449;-88
2023/10/25 04:01:02;;;;;;;0.70;0.52;;;10.80;99.90;;;;;;5073615;28;20055;-87
2023/10/25 04:03:29;;;;;;;1.02;0.50;;;10.80;99.90;;;;;;5085500;28;20066;-87
2023/10/25 04:05:56;;;;;;;0.57;0.35;;;10.80;99.90;;;;;;5072471;28;20056;-87
2023/10/25 04:08:23;;;;;;;0.93;0.80;;;10.90;99.90;;;;;;5094253;28;20058;-86
2023/10/25 04:10:56;;;;;;;0.30;0.30;;;10.80;99.90;;;;;;5064526;28;20076;-87
2023/10/25 04:13:24;;;;;;;0.77;0.30;;;10.80;99.90;;;;;;5080133;28;20052;-90
2023/10/25 04:16:06;;;;;;;0.52;0.32;;;10.80;99.90;;;;;;5065357;28;20054;-86
2023/10/25 04:18:33;;;;;;;1.17;0.45;;;10.80;99.90;;;;;;5073571;28;20069;-86
2023/10/25 04:21:01;;;;;;;0.40;0.30;;;10.80;99.90;;;;;;5070797;28;20398;-87
2023/10/25 04:23:31;;;;;;;0.30;0.30;;;10.80;99.90;;;;;;5064485;28;20430;-88
2023/10/25 04:26:08;;;;;;;0.47;0.32;;;10.80;99.90;;;;;;5070706;28;20127;-88
2023/10/25 04:28:40;;;;;;;0.60;0.40;;;10.80;99.90;;;;;;5084388;28;20044;-89
2023/10/25 04:31:13;;;;;;;0.30;0.30;;;10.80;99.90;;;;;;5077550;28;20048;-87
2023/10/25 04:33:43;;;;;;;0.57;0.50;;;10.90;99.90;;;;;;5066095;28;20055;-88
2023/10/25 04:36:10;;;;;;;0.30;0.30;;;10.90;99.90;;;;;;5083421;28;20040;-87
2023/10/25 04:38:43;;;;;;;0.38;0.30;;;10.80;99.90;;;;;;5095002;28;20049;-88
2023/10/25 04:41:16;;;;;;;0.38;0.35;;;10.90;99.90;;;;;;5110358;28;20147;-88
2023/10/25 04:43:47;;;;;;;0.40;0.38;;;10.90;99.90;;;;;;5092150;28;20051;-88
2023/10/25 04:46:16;;;;;;;0.98;0.60;;;10.90;99.90;;;;;;5087011;28;20414;-84
2023/10/25 04:48:45;;;;;;;0.90;0.50;;;10.90;99.90;;;;;;5083436;28;20443;-86
2023/10/25 04:51:14;;;;;;;0.30;0.30;;;10.90;99.90;;;;;;5071081;28;20075;-86
2023/10/25 04:53:42;;;;;;;0.80;0.60;;;10.90;99.90;;;;;;5092259;28;20055;-86
2023/10/25 04:56:09;;;;;;;0.73;0.55;;;10.90;99.90;;;;;;5074985;28;20399;-85
2023/10/25 04:58:37;;;;;;;0.55;0.55;;;10.90;99.90;;;;;;5070799;28;20108;-87
2023/10/25 05:01:11;;;;;;;0.75;0.70;;;10.90;99.90;;;;;;5074570;28;20472;-84
2023/10/25 05:03:39;;;;;;;1.05;0.80;;;10.90;99.90;;;;;;5078103;28;20043;-87
2023/10/25 05:06:09;;;;;;;1.33;0.98;;;10.90;99.90;;;;;;5069827;28;20071;-85
2023/10/25 05:08:36;;;;;;;1.15;0.90;;;10.90;99.90;;;;;;5071983;28;20394;-85
2023/10/25 05:11:04;;;;;;;1.40;0.95;;;10.90;99.90;;;;;;5070947;28;20047;-86
2023/10/25 05:13:32;;;;;;;1.25;1.00;;;10.90;99.90;;;;;;5069936;28;20651;-86
2023/10/25 05:16:00;;;;;;;1.83;1.33;;;10.90;99.90;;;;;;5067087;28;20108;-86
2023/10/25 05:18:28;;;;;;;1.83;1.33;;;10.90;99.90;;;;;;5074539;28;20056;-87
2023/10/25 05:21:00;;;;;;;2.47;1.52;;;10.90;99.90;;;;;;5070753;28;20052;-86
2023/10/25 05:23:31;;;;;;;1.77;1.37;;;10.90;99.90;;;;;;5076416;28;20117;-86
2023/10/25 05:26:04;;;;;;;1.77;1.30;;;10.90;99.90;;;;;;5067313;28;20070;-86
2023/10/25 05:28:32;;;;;;;1.58;1.45;;;10.90;99.90;;;;;;5090078;28;20066;-86
2023/10/25 05:31:02;;;;;;;1.92;1.63;;;10.90;99.90;;;;;;5068758;28;20067;-85
2023/10/25 05:33:32;;;;;;;1.70;1.30;;;10.90;99.90;;;;;;5072189;28;20059;-86
2023/10/25 05:36:03;;;;;;;1.65;1.55;;;11.00;99.90;;;;;;5064544;28;20587;-85
2023/10/25 05:38:31;;;;;;;1.63;1.23;;;11.00;99.90;;;;;;5073279;28;20061;-88
2023/10/25 05:40:58;;;;;;;1.60;1.38;;;11.00;99.90;;;;;;5065773;28;20406;-83
2023/10/25 05:43:29;;;;;;;1.58;1.10;;;11.00;99.90;;;;;;5075616;28;20075;-87
2023/10/25 05:45:56;;;;;;;1.83;1.42;;;11.10;99.90;;;;;;5072799;28;20052;-86
2023/10/25 05:48:26;;;;;;;2.05;1.80;;;11.10;99.90;;;;;;5088263;28;20442;-85
2023/10/25 05:50:55;;;;;;;1.83;1.15;;;11.10;99.90;;;;;;5089880;28;20059;-88
2023/10/25 05:53:22;;;;;;;2.00;1.45;;;11.10;99.90;;;;;;5079578;28;20078;-84
2023/10/25 05:55:50;;;;;;;2.33;1.40;;;11.10;99.90;;;;;;5061531;28;20047;-87
2023/10/25 05:58:18;;;;;;;2.13;1.50;;;11.10;99.90;;;;;;5065063;28;20097;-89
2023/10/25 06:00:49;;;;;;;2.17;1.52;;;11.00;99.90;;;;;;5076649;28;20044;-87
2023/10/25 06:03:19;;;;;;;2.83;2.33;;;11.10;99.90;;;;;;5071551;28;20578;-87
2023/10/25 06:05:50;;;;;;;;;;;11.10;99.90;;;;;;5076457;28;20602;-89
2023/10/25 06:08:18;;;;;;;1.27;1.17;;;11.10;99.90;;;;;;5089425;28;20001;-89
2023/10/25 06:10:48;;;;;;;0.95;0.90;;;11.10;99.90;;;;;;5070609;28;20047;-89
2023/10/25 06:13:16;;;;;;;1.60;1.38;;;11.10;99.90;;;;;;5062655;28;20078;-89
2023/10/25 06:15:44;;;;;;;1.83;1.40;;;11.10;99.90;;;;;;5086556;28;20058;-90
2023/10/25 06:18:12;;;;;;;3.78;2.38;;;11.10;99.90;;;;;;5091283;28;20087;-90
2023/10/25 06:20:39;;;;;;;2.00;1.58;;;11.10;99.90;;;;;;5084650;28;20054;-90
2023/10/25 06:23:06;;;;;;;1.70;1.50;;;11.10;99.90;;;;;;5067801;28;20473;-91
2023/10/25 06:25:33;;;;;;;2.70;1.60;;;11.10;99.90;;;;;;5061117;28;20604;-89
2023/10/25 06:28:00;;;;;;;1.65;1.42;;;11.10;99.90;;;;;;5071873;28;20044;-90
2023/10/25 06:30:28;;;;;;;1.77;1.52;;;11.10;99.90;;;;;;5078102;28;20304;-89
2023/10/25 06:32:58;;;;;;;1.42;1.15;;;11.20;99.90;;;;;;5080421;28;20262;-90
2023/10/25 06:35:25;;;;;;;2.08;1.38;;;11.20;99.90;;;;;;5056246;28;20087;-89
2023/10/25 06:37:52;;;;;;;1.83;1.40;;;11.10;99.90;;;;;;5084088;28;20039;-90
2023/10/25 06:40:20;;;;;;;1.45;1.25;;;11.10;99.90;;;;;;5069787;28;20056;-89
2023/10/25 06:42:47;;;;;;;1.25;1.10;;;11.10;99.90;;;;;;5073409;28;20546;-91
2023/10/25 06:45:14;;;;;;;1.35;1.10;;;11.20;99.90;;;;;;5076578;28;20147;-90
2023/10/25 06:47:42;;;;;;;1.92;1.20;;;11.20;99.90;;;;;;5073925;28;20060;-89
2023/10/25 06:50:14;;;;;;;1.60;1.20;;;11.20;99.90;;;;;;5098279;28;20052;-89
2023/10/25 06:52:41;;;;;;;1.80;1.27;;;11.20;99.90;;;;;;5086298;28;20569;-90
2023/10/25 06:55:10;;;;;;;2.58;1.63;;;11.20;99.90;;;;;;5065962;28;20052;-88
2023/10/25 06:57:38;;;;;;;1.80;1.52;;;11.20;99.90;;;;;;5070411;28;20119;-90
2023/10/25 07:00:09;;;;;;;2.25;1.63;;;11.20;99.90;;;;;;5089530;28;20040;-90
2023/10/25 07:02:42;;;;;;;3.38;1.88;;;11.20;99.90;;;;;;5079776;28;20055;-89
2023/10/25 07:05:14;;;;;;;2.08;1.50;;;11.20;99.90;;;;;;5084514;28;20093;-90
2023/10/25 07:07:43;;;;;;;2.03;1.60;;;11.20;99.90;;;;;;5077377;28;20048;-90
2023/10/25 07:10:11;;;;;;;1.92;1.33;;;11.30;99.90;;;;;;5072403;28;20041;-90
2023/10/25 07:12:38;;;;;;;1.17;0.98;;;11.30;99.90;;;;;;5089712;28;20051;-89
2023/10/25 07:15:14;;;;;;;1.40;1.15;;;11.30;99.90;;;;;;5075094;28;20449;-89
2023/10/25 07:17:41;;;;;;;2.95;1.48;;;11.40;99.90;;;;;;5082459;28;20052;-89
2023/10/25 07:20:10;;;;;;;1.70;1.58;;;11.40;99.90;;;;;;5088273;28;20059;-90
2023/10/25 07:22:38;;;;;;;1.95;1.60;;;11.40;99.90;;;;;;5067136;28;20062;-89
2023/10/25 07:25:09;;;;;;;2.10;1.48;;;11.40;99.90;;;;;;5076291;28;20060;-89
2023/10/25 07:27:37;;;;;;;2.13;1.40;;;11.40;99.90;;;;;;5076267;28;20115;-90
2023/10/25 07:30:05;;;;;;;1.85;1.38;;;11.40;99.90;;;;;;5072030;28;20058;-90
2023/10/25 07:32:35;;;;;;;2.38;2.17;;;11.40;99.90;;;;;;5091487;28;20150;-89
2023/10/25 07:35:03;;;;;;;3.28;1.98;;;11.40;99.90;;;;;;5069738;28;20052;-88
2023/10/25 07:37:31;;;;;;;2.53;1.92;;;11.40;99.90;;;;;;5077934;28;20059;-90
2023/10/25 07:40:05;;;;;;;2.10;1.85;;;11.50;99.90;;;;;;5087654;28;20055;-89
2023/10/25 07:42:33;;;;;;;2.72;2.35;;;11.50;99.90;;;;;;5095323;28;20115;-89
2023/10/25 07:45:00;;;;;;;3.00;2.15;;;11.50;99.90;;;;;;5061351;28;20044;-81
2023/10/25 07:47:27;;;;;;;2.47;2.00;;;11.50;99.90;;;;;;5094919;28;20051;-81
2023/10/25 07:49:55;;;;;;;2.60;2.10;;;11.50;99.90;;;;;;5095618;28;20435;-81
2023/10/25 07:52:23;;;;;;;2.67;2.25;;;11.70;99.90;;;;;;5092551;28;21567;-81
2023/10/25 07:54:50;;;;;;;3.13;2.20;;;11.70;99.90;;;;;;5087647;28;20500;-81
2023/10/25 07:57:17;;;;;;;2.53;2.17;;;11.80;99.90;;;;;;5085630;28;20432;-81
2023/10/25 08:00:04;;;;;;;2.10;1.58;;;11.80;99.90;;;;;;5093426;28;20512;-80
2023/10/25 08:02:31;;;;;;;1.90;1.52;;;11.90;99.90;;;;;;5090285;28;20047;-80
2023/10/25 08:04:58;;;;;;;3.13;1.70;;;12.00;82.60;;;;;;5093162;28;20072;-81
2023/10/25 08:07:26;;;;;;;2.53;1.73;;;12.10;52.40;;;;;;5099283;28;20052;-81
2023/10/25 08:09:53;;;;;;;3.55;1.73;;;12.10;1.00;;;;;;5094239;28;20471;-81
2023/10/25 08:12:20;;;;;;;3.33;1.60;;;12.10;1.00;;;;;;5101285;28;20081;-81
2023/10/25 08:14:47;;;;;;;2.03;1.70;;;12.10;1.00;;;;;;5088811;28;20055;-81
2023/10/25 08:17:13;;;;;;;3.17;2.22;;;12.10;1.00;;;;;;5106550;28;20050;-81
2023/10/25 08:19:40;;;;;;;2.13;1.55;;;12.00;1.00;;;;;;5088091;28;20393;-81
2023/10/25 08:22:08;;;;;;;1.65;1.42;;;12.00;1.00;;;;;;5094792;28;20044;-81
2023/10/25 08:24:35;;;;;;;3.08;2.10;;;12.10;1.00;;;;;;5101798;28;20130;-81
2023/10/25 08:27:02;;;;;;;1.95;1.67;;;12.00;1.00;;;;;;5090387;28;20062;-81
2023/10/25 08:29:29;;;;;;;2.78;2.13;;;12.00;99.90;;;;;;5102489;28;20047;-80
2023/10/25 08:31:56;;;;;;;3.00;1.85;;;12.00;99.90;;;;;;5107491;28;20055;-81
2023/10/25 08:34:23;;;;;;;3.22;2.28;;;12.00;1.00;;;;;;5100991;28;20039;-80
2023/10/25 08:36:52;;;;;;;2.88;2.05;;;11.90;99.90;;;;;;5093933;28;20097;-81
2023/10/25 08:39:21;;;;;;;3.35;2.65;;;11.80;99.90;;;;;;5069971;28;20059;-81
2023/10/25 08:41:48;;;;;;;3.40;2.67;;;11.70;99.90;;;;;;5085621;28;20120;-80
2023/10/25 08:44:15;;;;;;;4.00;2.47;;;11.70;99.90;;;;;;5080355;28;20154;-80
2023/10/25 08:46:42;;;;;;;3.42;2.63;;;11.60;1.00;;;;;;5085225;28;20123;-81
2023/10/25 08:49:09;;;;;;;3.42;2.42;;;11.60;1.00;;;;;;5087568;28;20047;-81
2023/10/25 08:51:36;;;;;;;2.90;2.25;;;11.70;99.90;;;;;;5088382;28;20054;-81
2023/10/25 08:54:03;;;;;;;3.72;2.40;;;11.70;99.90;;;;;;5087834;28;20269;-81
2023/10/25 08:56:30;;;;;;;3.08;2.28;;;11.70;99.90;;;;;;5088350;28;20047;-81
2023/10/25 08:58:59;;;;;;;2.97;2.03;;;11.80;99.90;;;;;;5067536;28;20134;-81
2023/10/25 09:01:27;;;;;;;2.45;2.20;;;12.00;99.90;;;;;;5086144;28;20079;-80
2023/10/25 09:03:55;;;;;;;2.08;1.73;;;12.10;99.90;;;;;;5097861;28;20487;-80
2023/10/25 09:06:23;;;;;;;2.80;2.05;;;12.10;99.90;;;;;;5092326;28;20449;-80
2023/10/25 09:08:58;;;;;;;3.70;2.15;;;12.10;99.90;;;;;;5099871;28;20522;-80
2023/10/25 09:11:25;;;;;;;2.97;2.03;;;12.00;3.30;;;;;;5089298;28;20044;-79
2023/10/25 09:13:56;;;;;;;2.03;1.67;;;12.00;1.00;;;;;;5102056;28;20116;-80
2023/10/25 09:16:26;;;;;;;2.80;1.85;;;12.10;1.00;;;;;;5096893;28;20050;-82
2023/10/25 09:18:53;;;;;;;1.92;1.60;;;12.10;1.00;;;;;;5103328;28;20048;-82
2023/10/25 09:21:26;;;;;;;2.00;1.50;;;12.20;1.00;;;;;;5107264;28;20099;-81
2023/10/25 09:23:59;;;;;;;2.40;1.92;;;12.10;1.00;;;;;;5102738;28;20066;-81
2023/10/25 09:26:31;;;;;;;3.15;1.88;;;12.20;1.00;;;;;;5080470;28;20119;-82
2023/10/25 09:28:58;;;;;;;2.00;1.50;;;12.20;99.90;;;;;;5069700;28;20082;-81
2023/10/25 09:31:29;;;;;;;1.88;1.52;;;12.20;99.90;;;;;;5076005;28;20300;-81
2023/10/25 09:33:57;;;;;;;2.33;1.83;;;12.30;99.90;;;;;;5072243;28;20051;-81
2023/10/25 09:36:24;;;;;;;4.60;2.80;;;12.40;99.90;;;;;;5098726;28;20117;-79
2023/10/25 09:38:51;;;;;;;1.90;1.70;;;12.50;50.10;;;;;;5092805;28;20080;-79
2023/10/25 09:41:18;;;;;;;2.08;1.58;;;12.60;1.00;;;;;;5093906;28;20455;-79
2023/10/25 09:43:50;;;;;;;2.80;2.40;;;12.70;1.00;;;;;;5099600;28;20051;-80
2023/10/25 09:46:18;;;;;;;2.20;1.90;;;12.70;1.00;;;;;;5089423;28;20047;-80
2023/10/25 09:49:04;;;;;;;2.05;1.48;;;12.70;1.00;;;;;;5104969;28;20427;-81
2023/10/25 09:52:00;;;;;;;2.92;1.60;;;12.80;1.00;;;;;;5098541;28;20063;-80
2023/10/25 09:54:34;;;;;;;2.17;1.50;;;12.90;21.10;;;;;;5095505;28;20048;-80
2023/10/25 09:57:02;;;;;;;2.15;1.75;;;13.00;95.30;;;;;;5080495;28;20048;-80
2023/10/25 09:59:31;;;;;;;2.92;2.10;;;13.10;99.90;;;;;;5088738;28;20074;-80
2023/10/25 10:02:01;;;;;;;2.75;1.83;;;13.10;99.90;;;;;;5085193;28;20070;-80
2023/10/25 10:04:39;;;;;;;3.75;1.85;;;13.20;31.40;;;;;;5093628;28;20059;-80
2023/10/25 10:07:37;;;;;;;2.33;1.73;;;13.10;1.00;;;;;;5087502;28;20125;-80
2023/10/25 10:10:28;;;;;;;1.88;1.45;;;13.20;1.00;;;;;;5095057;28;20055;-89
2023/10/25 10:12:55;;;;;;;2.72;1.55;;;13.30;1.00;;;;;;5072396;28;20142;-89
2023/10/25 10:16:04;;;;;;;2.33;1.65;;;13.40;99.90;;;;;;5071435;28;20417;-77
2023/10/25 10:18:35;;;;;;;3.08;2.00;;;13.40;1.00;;;;;;5096094;28;20051;-76
2023/10/25 10:21:04;;;;;;;2.97;1.92;;;13.40;99.90;;;;;;5096144;28;20039;-76
2023/10/25 10:23:39;;;;;;;2.55;1.85;;;13.40;99.90;;;;;;5092929;28;20258;-76
2023/10/25 10:26:07;;;;;;;4.43;2.20;;;13.40;99.00;;;;;;5096882;28;20101;-79
2023/10/25 10:28:42;;;;;;;1.95;1.60;;;13.40;99.90;;;;;;5069175;28;20051;-78
2023/10/25 10:31:10;;;;;;;2.35;1.77;;;13.50;99.90;;;;;;5104072;28;20051;-77
2023/10/25 10:33:44;;;;;;;2.40;1.45;;;13.50;1.00;;;;;;5106083;28;20701;-79
2023/10/25 10:36:14;;;;;;;2.20;1.52;;;13.60;1.00;;;;;;5102953;28;20097;-80
2023/10/25 10:39:18;;;;;;;1.85;1.58;;;13.60;99.90;;;;;;5102997;28;20119;-80
2023/10/25 10:41:45;;;;;;;3.75;1.90;;;13.60;99.90;;;;;;5104732;28;20043;-81
2023/10/25 10:44:12;;;;;;;2.15;1.75;;;13.60;99.90;;;;;;5091446;28;20044;-80
2023/10/25 10:46:53;;;;;;;1.67;1.40;;;13.60;99.90;;;;;;5085745;28;20644;-80
2023/10/25 10:49:21;;;;;;;2.33;1.73;;;13.70;99.90;;;;;;5081119;28;20052;-80
2023/10/25 10:51:49;;;;;;;1.90;1.30;;;13.80;99.90;;;;;;5095048;28;20117;-80
2023/10/25 10:54:16;;;;;;;2.15;1.45;;;13.80;1.00;;;;;;5091418;28;20111;-80
2023/10/25 10:56:43;;;;;;;3.42;2.10;;;13.80;1.00;;;;;;5091859;28;20436;-80
2023/10/25 10:59:10;;;;;;;2.03;1.50;;;13.80;1.00;;;;;;5080955;28;20066;-78
2023/10/25 11:01:37;;;;;;;2.03;1.73;;;13.70;1.00;;;;;;5096292;28;20074;-78
2023/10/25 11:04:05;;;;;;;1.90;1.45;;;13.80;1.00;;;;;;5098909;28;20048;-78
2023/10/25 11:06:33;;;;;;;1.88;1.27;;;13.90;1.00;;;;;;5088786;28;20509;-78
2023/10/25 11:09:00;;;;;;;1.45;0.88;;;14.00;1.00;;;;;;5091000;28;20507;-78
2023/10/25 11:11:27;;;;;;;1.50;1.17;;;14.20;1.00;;;;;;5107303;28;20044;-78
2023/10/25 11:13:54;;;;;;;1.65;1.00;;;14.30;1.00;;;;;;5105817;28;20131;-78
2023/10/25 11:16:21;;;;;;;1.75;1.27;;;14.30;99.90;;;;;;5105247;28;20084;-78
2023/10/25 11:18:48;;;;;;;1.40;1.08;;;14.40;99.90;;;;;;5109287;28;20154;-78
2023/10/25 11:21:15;;;;;;;1.40;1.02;;;14.50;99.90;;;;;;5090881;28;20071;-78
2023/10/25 11:23:42;;;;;;;1.58;1.20;;;14.60;99.90;;;;;;5106002;28;21019;-78
2023/10/25 11:26:09;;;;;;;2.25;1.70;;;14.50;99.90;;;;;;5085726;28;20086;-78
2023/10/25 11:28:39;;;;;;;1.88;1.00;;;14.40;99.90;;;;;;5106545;28;20052;-77
2023/10/25 11:31:05;;;;;;;1.13;0.90;;;14.50;99.90;;;;;;5100649;28;20043;-78
2023/10/25 11:33:43;;;;;;;2.10;1.08;;;14.50;99.90;;;;;;5100740;28;20487;-78
2023/10/25 11:36:11;;;;;;;1.23;1.02;;;14.60;99.90;;;;;;5106833;28;20438;-78
2023/10/25 11:38:43;;;;;;;0.93;0.77;;;14.60;99.90;;;;;;5108163;28;20095;-78
2023/10/25 11:41:11;;;;;;;2.05;1.40;;;14.70;99.90;;;;;;5107828;28;20044;-78
2023/10/25 11:43:38;;;;;;;1.23;0.90;;;14.60;99.90;;;;;;5105869;28;20139;-78
2023/10/25 11:46:05;;;;;;;1.27;0.90;;;14.70;99.90;;;;;;5095190;28;20044;-79
2023/10/25 11:48:34;;;;;;;0.90;0.80;;;14.70;99.90;;;;;;5083653;28;20078;-79
2023/10/25 11:51:03;;;;;;;0.85;0.68;;;14.60;99.90;;;;;;5098544;28;20562;-79
2023/10/25 11:53:30;;;;;;;0.85;0.70;;;14.50;99.90;;;;;;5101730;28;20396;-79
2023/10/25 11:55:58;;;;;;;1.25;0.80;;;14.50;99.90;;;;;;5106022;28;20040;-79
2023/10/25 11:58:29;;;;;;;1.52;0.95;;;14.50;99.90;;;;;;5108103;28;20054;-79
2023/10/25 12:00:55;;;;;;;2.25;1.02;;;14.60;99.90;;;;;;5085912;28;20629;-79
2023/10/25 12:03:22;;;;;;;0.93;0.70;;;14.60;99.90;;;;;;5106241;28;20044;-79
2023/10/25 12:05:49;;;;;;;1.38;0.82;;;14.60;99.90;;;;;;5085442;28;20062;-79
2023/10/25 12:08:16;;;;;;;0.68;0.50;;;14.50;99.90;;;;;;5085891;28;20059;-79
2023/10/25 12:10:44;;;;;;;1.23;1.10;;;14.60;99.90;;;;;;5097942;28;20047;-79
2023/10/25 12:13:11;;;;;;;1.80;1.42;;;14.60;99.90;;;;;;5106159;28;20055;-79
2023/10/25 12:15:37;;;;;;;1.77;1.33;;;14.60;99.90;;;;;;5094732;28;20044;-79
2023/10/25 12:18:05;;;;;;;1.55;1.10;;;14.60;99.90;;;;;;5087784;28;20044;-79
2023/10/25 12:20:32;;;;;;;1.45;1.13;;;14.50;99.90;;;;;;5096492;28;20055;-79
2023/10/25 12:23:01;;;;;;;1.55;1.35;;;14.40;99.90;;;;;;5105353;28;20051;-78
2023/10/25 12:25:28;;;;;;;1.65;1.05;;;14.40;99.90;;;;;;5101983;28;20383;-78
2023/10/25 12:27:55;;;;;;;1.77;1.15;;;14.30;99.90;;;;;;5096452;28;20523;-78
2023/10/25 12:30:22;;;;;;;0.93;0.80;;;14.20;99.90;;;;;;5091936;28;20481;-78
2023/10/25 12:32:52;;;;;;;1.90;1.10;;;14.20;99.90;;;;;;5102579;28;20561;-79
2023/10/25 12:35:19;;;;;;;0.85;0.63;;;14.30;99.90;;;;;;5085561;28;20044;-79
2023/10/25 12:37:46;;;;;;;0.60;0.55;;;14.50;99.90;;;;;;5106027;28;20501;-79
2023/10/25 12:40:16;;;;;;;0.38;0.38;;;14.60;99.90;;;;;;5104500;28;20417;-78
2023/10/25 12:42:43;;;;;;;0.60;0.60;;;14.80;99.90;;;;;;5106730;28;20051;-79
2023/10/25 12:45:10;;;;;;;0.57;0.45;;;15.00;99.90;;;;;;5105659;28;20096;-79
2023/10/25 12:47:37;;;;;;;0.50;0.50;;;15.20;99.90;;;;;;5104740;28;20135;-78
2023/10/25 12:50:04;;;;;;;0.98;0.80;;;15.30;99.90;;;;;;5105778;28;20407;-79
2023/10/25 12:52:32;;;;;;;1.40;0.77;;;15.30;99.90;;;;;;5105356;28;20060;-79
2023/10/25 12:55:00;;;;;;;0.95;0.55;;;15.40;99.90;;;;;;5104591;28;20047;-78
2023/10/25 12:57:27;;;;;;;0.45;0.45;;;15.50;99.90;;;;;;5105926;28;20477;-79
2023/10/25 12:59:54;;;;;;;0.68;0.50;;;15.60;99.90;;;;;;5087618;28;20196;-79